sensor_id;sensor_type;location;lat;lon;timestamp;P1;durP1;ratioP1;P2;durP2;ratioP2
27223;SDS011;14965;50.660;13.226;2024-03-07T00:01:58;66.45;;;34.88;;
27223;SDS011;14965;50.660;13.226;2024-03-07T00:04:25;68.90;;;34.70;;
27223;SDS011;14965;50.660;13.226;2024-03-07T00:06:51;67.53;;;33.15;;
27223;SDS011;14965;50.660;13.226;2024-03-07T00:09:17;66.47;;;34.28;;
27223;SDS011;14965;50.660;13.226;2024-03-07T00:11:43;66.68;;;34.60;;
27223;SDS011;14965;50.660;13.226;2024-03-07T00:14:09;70.32;;;35.03;;
27223;SDS011;14965;50.660;13.226;2024-03-07T00:16:35;70.00;;;34.38;;
27223;SDS011;14965;50.660;13.226;2024-03-07T00:19:01;64.63;;;34.75;;
27223;SDS011;14965;50.660;13.226;2024-03-07T00:21:28;66.38;;;33.10;;
27223;SDS011;14965;50.660;13.226;2024-03-07T00:23:54;70.20;;;34.67;;
27223;SDS011;14965;50.660;13.226;2024-03-07T00:26:19;67.35;;;34.38;;
27223;SDS011;14965;50.660;13.226;2024-03-07T00:28:45;66.72;;;34.42;;
27223;SDS011;14965;50.660;13.226;2024-03-07T00:31:11;64.82;;;34.10;;
27223;SDS011;14965;50.660;13.226;2024-03-07T00:33:37;69.80;;;34.45;;
27223;SDS011;14965;50.660;13.226;2024-03-07T00:36:03;70.30;;;35.55;;
27223;SDS011;14965;50.660;13.226;2024-03-07T00:38:31;70.40;;;35.42;;
27223;SDS011;14965;50.660;13.226;2024-03-07T00:40:57;69.65;;;35.15;;
27223;SDS011;14965;50.660;13.226;2024-03-07T00:43:23;71.00;;;34.80;;
27223;SDS011;14965;50.660;13.226;2024-03-07T00:45:49;72.28;;;35.75;;
27223;SDS011;14965;50.660;13.226;2024-03-07T00:48:15;71.25;;;35.28;;
27223;SDS011;14965;50.660;13.226;2024-03-07T00:50:41;71.40;;;35.00;;
27223;SDS011;14965;50.660;13.226;2024-03-07T00:53:07;74.13;;;35.50;;
27223;SDS011;14965;50.660;13.226;2024-03-07T00:55:34;76.28;;;36.80;;
27223;SDS011;14965;50.660;13.226;2024-03-07T00:58:00;71.38;;;35.92;;
27223;SDS011;14965;50.660;13.226;2024-03-07T01:00:26;83.30;;;38.92;;
27223;SDS011;14965;50.660;13.226;2024-03-07T01:02:52;75.78;;;36.58;;
27223;SDS011;14965;50.660;13.226;2024-03-07T01:05:17;79.47;;;37.03;;
27223;SDS011;14965;50.660;13.226;2024-03-07T01:07:44;84.63;;;38.58;;
27223;SDS011;14965;50.660;13.226;2024-03-07T01:10:10;85.72;;;39.42;;
27223;SDS011;14965;50.660;13.226;2024-03-07T01:12:37;86.43;;;39.97;;
27223;SDS011;14965;50.660;13.226;2024-03-07T01:15:03;91.70;;;40.63;;
27223;SDS011;14965;50.660;13.226;2024-03-07T01:17:29;85.43;;;38.88;;
27223;SDS011;14965;50.660;13.226;2024-03-07T01:19:55;98.65;;;43.22;;
27223;SDS011;14965;50.660;13.226;2024-03-07T01:22:21;89.78;;;41.60;;
27223;SDS011;14965;50.660;13.226;2024-03-07T01:24:47;93.05;;;41.90;;
27223;SDS011;14965;50.660;13.226;2024-03-07T01:27:13;93.47;;;41.30;;
27223;SDS011;14965;50.660;13.226;2024-03-07T01:29:40;98.95;;;41.38;;
27223;SDS011;14965;50.660;13.226;2024-03-07T01:32:06;92.47;;;41.70;;
27223;SDS011;14965;50.660;13.226;2024-03-07T01:34:32;93.40;;;40.60;;
27223;SDS011;14965;50.660;13.226;2024-03-07T01:36:58;93.35;;;41.15;;
27223;SDS011;14965;50.660;13.226;2024-03-07T01:39:24;109.72;;;42.47;;
27223;SDS011;14965;50.660;13.226;2024-03-07T01:41:50;101.45;;;42.53;;
27223;SDS011;14965;50.660;13.226;2024-03-07T01:44:16;102.25;;;43.53;;
27223;SDS011;14965;50.660;13.226;2024-03-07T01:46:43;104.18;;;42.90;;
27223;SDS011;14965;50.660;13.226;2024-03-07T01:49:09;103.63;;;43.10;;
27223;SDS011;14965;50.660;13.226;2024-03-07T01:51:35;98.28;;;41.72;;
27223;SDS011;14965;50.660;13.226;2024-03-07T01:54:03;100.32;;;42.97;;
27223;SDS011;14965;50.660;13.226;2024-03-07T01:56:29;104.13;;;44.03;;
27223;SDS011;14965;50.660;13.226;2024-03-07T01:58:55;105.28;;;43.75;;
27223;SDS011;14965;50.660;13.226;2024-03-07T02:03:51;98.78;;;40.85;;
27223;SDS011;14965;50.660;13.226;2024-03-07T02:06:17;115.90;;;44.28;;
27223;SDS011;14965;50.660;13.226;2024-03-07T02:08:43;97.70;;;43.50;;
27223;SDS011;14965;50.660;13.226;2024-03-07T02:11:09;108.18;;;44.30;;
27223;SDS011;14965;50.660;13.226;2024-03-07T02:13:35;98.68;;;41.85;;
27223;SDS011;14965;50.660;13.226;2024-03-07T02:16:01;101.28;;;42.80;;
27223;SDS011;14965;50.660;13.226;2024-03-07T02:18:28;99.55;;;42.85;;
27223;SDS011;14965;50.660;13.226;2024-03-07T02:20:55;113.97;;;45.15;;
27223;SDS011;14965;50.660;13.226;2024-03-07T02:23:21;125.90;;;46.10;;
27223;SDS011;14965;50.660;13.226;2024-03-07T02:25:47;113.47;;;45.00;;
27223;SDS011;14965;50.660;13.226;2024-03-07T02:28:13;120.43;;;46.58;;
27223;SDS011;14965;50.660;13.226;2024-03-07T02:30:39;101.65;;;44.30;;
27223;SDS011;14965;50.660;13.226;2024-03-07T02:33:05;107.40;;;43.90;;
27223;SDS011;14965;50.660;13.226;2024-03-07T02:35:30;102.45;;;44.15;;
27223;SDS011;14965;50.660;13.226;2024-03-07T02:37:58;119.03;;;47.53;;
27223;SDS011;14965;50.660;13.226;2024-03-07T02:40:24;137.88;;;47.65;;
27223;SDS011;14965;50.660;13.226;2024-03-07T02:42:50;106.18;;;45.50;;
27223;SDS011;14965;50.660;13.226;2024-03-07T02:45:16;115.47;;;46.63;;
27223;SDS011;14965;50.660;13.226;2024-03-07T02:47:42;118.25;;;46.00;;
27223;SDS011;14965;50.660;13.226;2024-03-07T02:50:08;124.55;;;46.83;;
27223;SDS011;14965;50.660;13.226;2024-03-07T02:52:34;127.93;;;46.95;;
27223;SDS011;14965;50.660;13.226;2024-03-07T02:55:01;105.13;;;44.70;;
27223;SDS011;14965;50.660;13.226;2024-03-07T02:57:28;107.18;;;43.67;;
27223;SDS011;14965;50.660;13.226;2024-03-07T02:59:54;120.15;;;44.92;;
27223;SDS011;14965;50.660;13.226;2024-03-07T03:02:20;134.85;;;47.63;;
27223;SDS011;14965;50.660;13.226;2024-03-07T03:04:46;120.45;;;47.15;;
27223;SDS011;14965;50.660;13.226;2024-03-07T03:07:11;122.00;;;46.60;;
27223;SDS011;14965;50.660;13.226;2024-03-07T03:09:37;116.63;;;44.50;;
27223;SDS011;14965;50.660;13.226;2024-03-07T03:12:05;138.93;;;44.85;;
27223;SDS011;14965;50.660;13.226;2024-03-07T03:14:32;116.35;;;42.63;;
27223;SDS011;14965;50.660;13.226;2024-03-07T03:16:57;165.13;;;46.92;;
27223;SDS011;14965;50.660;13.226;2024-03-07T03:19:23;115.57;;;44.10;;
27223;SDS011;14965;50.660;13.226;2024-03-07T03:21:49;141.15;;;45.78;;
27223;SDS011;14965;50.660;13.226;2024-03-07T03:24:15;157.70;;;48.08;;
27223;SDS011;14965;50.660;13.226;2024-03-07T03:26:41;146.23;;;47.13;;
27223;SDS011;14965;50.660;13.226;2024-03-07T03:29:08;118.40;;;46.50;;
27223;SDS011;14965;50.660;13.226;2024-03-07T03:31:34;134.07;;;46.83;;
27223;SDS011;14965;50.660;13.226;2024-03-07T03:34:00;140.07;;;44.60;;
27223;SDS011;14965;50.660;13.226;2024-03-07T03:36:26;142.80;;;46.20;;
27223;SDS011;14965;50.660;13.226;2024-03-07T03:38:52;116.55;;;45.75;;
27223;SDS011;14965;50.660;13.226;2024-03-07T03:41:18;143.10;;;47.67;;
27223;SDS011;14965;50.660;13.226;2024-03-07T03:43:44;172.02;;;46.38;;
27223;SDS011;14965;50.660;13.226;2024-03-07T03:46:11;173.13;;;50.13;;
27223;SDS011;14965;50.660;13.226;2024-03-07T03:48:38;143.48;;;44.67;;
27223;SDS011;14965;50.660;13.226;2024-03-07T03:51:06;239.90;;;52.30;;
27223;SDS011;14965;50.660;13.226;2024-03-07T03:53:32;241.38;;;51.97;;
27223;SDS011;14965;50.660;13.226;2024-03-07T03:55:58;171.23;;;45.30;;
27223;SDS011;14965;50.660;13.226;2024-03-07T03:58:24;168.55;;;47.25;;
27223;SDS011;14965;50.660;13.226;2024-03-07T04:00:50;203.90;;;48.28;;
27223;SDS011;14965;50.660;13.226;2024-03-07T04:03:17;213.85;;;50.67;;
27223;SDS011;14965;50.660;13.226;2024-03-07T04:05:43;176.63;;;46.38;;
27223;SDS011;14965;50.660;13.226;2024-03-07T04:08:09;196.88;;;48.30;;
27223;SDS011;14965;50.660;13.226;2024-03-07T04:10:35;422.27;;;56.17;;
27223;SDS011;14965;50.660;13.226;2024-03-07T04:13:01;203.30;;;47.00;;
27223;SDS011;14965;50.660;13.226;2024-03-07T04:15:27;192.10;;;46.75;;
27223;SDS011;14965;50.660;13.226;2024-03-07T04:17:52;228.43;;;42.97;;
27223;SDS011;14965;50.660;13.226;2024-03-07T04:20:20;236.05;;;46.17;;
27223;SDS011;14965;50.660;13.226;2024-03-07T04:22:46;175.57;;;40.58;;
27223;SDS011;14965;50.660;13.226;2024-03-07T04:25:12;171.77;;;43.58;;
27223;SDS011;14965;50.660;13.226;2024-03-07T04:27:37;225.82;;;45.85;;
27223;SDS011;14965;50.660;13.226;2024-03-07T04:30:04;185.13;;;43.33;;
27223;SDS011;14965;50.660;13.226;2024-03-07T04:32:31;117.15;;;41.13;;
27223;SDS011;14965;50.660;13.226;2024-03-07T04:34:57;193.02;;;46.42;;
27223;SDS011;14965;50.660;13.226;2024-03-07T04:37:25;155.82;;;40.15;;
27223;SDS011;14965;50.660;13.226;2024-03-07T04:39:51;172.65;;;44.28;;
27223;SDS011;14965;50.660;13.226;2024-03-07T04:42:17;166.02;;;43.72;;
27223;SDS011;14965;50.660;13.226;2024-03-07T04:44:42;123.88;;;42.85;;
27223;SDS011;14965;50.660;13.226;2024-03-07T04:47:08;156.05;;;44.08;;
27223;SDS011;14965;50.660;13.226;2024-03-07T04:49:34;148.07;;;41.70;;
27223;SDS011;14965;50.660;13.226;2024-03-07T04:52:01;101.30;;;41.35;;
27223;SDS011;14965;50.660;13.226;2024-03-07T04:54:29;175.32;;;47.42;;
27223;SDS011;14965;50.660;13.226;2024-03-07T04:56:56;140.50;;;42.47;;
27223;SDS011;14965;50.660;13.226;2024-03-07T04:59:22;130.95;;;42.35;;
27223;SDS011;14965;50.660;13.226;2024-03-07T05:01:48;123.50;;;43.55;;
27223;SDS011;14965;50.660;13.226;2024-03-07T05:04:15;105.50;;;42.00;;
27223;SDS011;14965;50.660;13.226;2024-03-07T05:06:43;136.63;;;45.33;;
27223;SDS011;14965;50.660;13.226;2024-03-07T05:09:10;103.38;;;42.55;;
27223;SDS011;14965;50.660;13.226;2024-03-07T05:11:37;103.03;;;41.40;;
27223;SDS011;14965;50.660;13.226;2024-03-07T05:14:03;110.63;;;42.60;;
27223;SDS011;14965;50.660;13.226;2024-03-07T05:16:30;105.97;;;42.53;;
27223;SDS011;14965;50.660;13.226;2024-03-07T05:18:56;106.47;;;43.22;;
27223;SDS011;14965;50.660;13.226;2024-03-07T05:21:22;108.70;;;43.28;;
27223;SDS011;14965;50.660;13.226;2024-03-07T05:23:48;95.85;;;41.97;;
27223;SDS011;14965;50.660;13.226;2024-03-07T05:26:14;98.10;;;42.40;;
27223;SDS011;14965;50.660;13.226;2024-03-07T05:28:41;98.63;;;41.92;;
27223;SDS011;14965;50.660;13.226;2024-03-07T05:31:07;103.30;;;43.75;;
27223;SDS011;14965;50.660;13.226;2024-03-07T05:33:33;98.15;;;43.05;;
27223;SDS011;14965;50.660;13.226;2024-03-07T05:35:59;97.28;;;42.28;;
27223;SDS011;14965;50.660;13.226;2024-03-07T05:38:25;106.20;;;44.55;;
27223;SDS011;14965;50.660;13.226;2024-03-07T05:40:51;90.88;;;41.00;;
27223;SDS011;14965;50.660;13.226;2024-03-07T05:43:16;92.60;;;42.78;;
27223;SDS011;14965;50.660;13.226;2024-03-07T05:45:44;100.07;;;41.97;;
27223;SDS011;14965;50.660;13.226;2024-03-07T05:48:13;100.50;;;42.38;;
27223;SDS011;14965;50.660;13.226;2024-03-07T05:50:40;99.10;;;43.88;;
27223;SDS011;14965;50.660;13.226;2024-03-07T05:53:06;99.50;;;43.45;;
27223;SDS011;14965;50.660;13.226;2024-03-07T05:55:32;108.03;;;43.45;;
27223;SDS011;14965;50.660;13.226;2024-03-07T05:57:58;97.95;;;41.95;;
27223;SDS011;14965;50.660;13.226;2024-03-07T06:00:23;87.63;;;40.85;;
27223;SDS011;14965;50.660;13.226;2024-03-07T06:02:51;92.88;;;41.40;;
27223;SDS011;14965;50.660;13.226;2024-03-07T06:05:17;91.85;;;41.30;;
27223;SDS011;14965;50.660;13.226;2024-03-07T06:07:43;99.60;;;43.30;;
27223;SDS011;14965;50.660;13.226;2024-03-07T06:10:09;96.82;;;42.15;;
27223;SDS011;14965;50.660;13.226;2024-03-07T06:12:35;87.25;;;41.72;;
27223;SDS011;14965;50.660;13.226;2024-03-07T06:15:00;87.35;;;39.80;;
27223;SDS011;14965;50.660;13.226;2024-03-07T06:17:26;91.10;;;39.08;;
27223;SDS011;14965;50.660;13.226;2024-03-07T06:19:53;88.32;;;40.67;;
27223;SDS011;14965;50.660;13.226;2024-03-07T06:22:19;88.75;;;41.58;;
27223;SDS011;14965;50.660;13.226;2024-03-07T06:24:45;105.13;;;42.75;;
27223;SDS011;14965;50.660;13.226;2024-03-07T06:27:11;92.85;;;42.42;;
27223;SDS011;14965;50.660;13.226;2024-03-07T06:29:37;86.10;;;40.95;;
27223;SDS011;14965;50.660;13.226;2024-03-07T06:32:03;80.53;;;39.15;;
27223;SDS011;14965;50.660;13.226;2024-03-07T06:34:29;76.65;;;37.15;;
27223;SDS011;14965;50.660;13.226;2024-03-07T06:36:57;74.00;;;35.30;;
27223;SDS011;14965;50.660;13.226;2024-03-07T06:39:23;64.65;;;33.35;;
27223;SDS011;14965;50.660;13.226;2024-03-07T06:41:48;69.28;;;33.97;;
27223;SDS011;14965;50.660;13.226;2024-03-07T06:44:14;66.35;;;34.20;;
27223;SDS011;14965;50.660;13.226;2024-03-07T06:46:40;67.90;;;34.65;;
27223;SDS011;14965;50.660;13.226;2024-03-07T06:49:06;69.32;;;35.05;;
27223;SDS011;14965;50.660;13.226;2024-03-07T06:51:32;69.32;;;34.50;;
27223;SDS011;14965;50.660;13.226;2024-03-07T06:53:59;70.43;;;34.78;;
27223;SDS011;14965;50.660;13.226;2024-03-07T06:56:25;71.15;;;35.85;;
27223;SDS011;14965;50.660;13.226;2024-03-07T06:58:51;69.22;;;35.35;;
27223;SDS011;14965;50.660;13.226;2024-03-07T07:01:17;62.33;;;33.67;;
27223;SDS011;14965;50.660;13.226;2024-03-07T07:03:43;69.55;;;33.15;;
27223;SDS011;14965;50.660;13.226;2024-03-07T07:06:09;70.53;;;33.90;;
27223;SDS011;14965;50.660;13.226;2024-03-07T07:08:35;67.85;;;33.83;;
27223;SDS011;14965;50.660;13.226;2024-03-07T07:11:03;69.03;;;33.10;;
27223;SDS011;14965;50.660;13.226;2024-03-07T07:13:29;66.88;;;33.65;;
27223;SDS011;14965;50.660;13.226;2024-03-07T07:15:55;65.40;;;34.58;;
27223;SDS011;14965;50.660;13.226;2024-03-07T07:18:21;71.70;;;33.92;;
27223;SDS011;14965;50.660;13.226;2024-03-07T07:20:47;69.38;;;34.10;;
27223;SDS011;14965;50.660;13.226;2024-03-07T07:23:13;65.25;;;32.53;;
27223;SDS011;14965;50.660;13.226;2024-03-07T07:25:39;61.92;;;32.13;;
27223;SDS011;14965;50.660;13.226;2024-03-07T07:28:06;61.40;;;31.58;;
27223;SDS011;14965;50.660;13.226;2024-03-07T07:30:32;58.67;;;31.65;;
27223;SDS011;14965;50.660;13.226;2024-03-07T07:32:58;61.13;;;30.63;;
27223;SDS011;14965;50.660;13.226;2024-03-07T07:35:23;64.30;;;31.13;;
27223;SDS011;14965;50.660;13.226;2024-03-07T07:37:50;55.55;;;29.58;;
27223;SDS011;14965;50.660;13.226;2024-03-07T07:40:18;58.13;;;30.45;;
27223;SDS011;14965;50.660;13.226;2024-03-07T07:42:45;57.03;;;31.02;;
27223;SDS011;14965;50.660;13.226;2024-03-07T07:45:14;60.22;;;29.77;;
27223;SDS011;14965;50.660;13.226;2024-03-07T07:47:41;56.80;;;31.30;;
27223;SDS011;14965;50.660;13.226;2024-03-07T07:50:09;62.70;;;30.00;;
27223;SDS011;14965;50.660;13.226;2024-03-07T07:52:39;54.22;;;28.65;;
27223;SDS011;14965;50.660;13.226;2024-03-07T07:55:06;56.72;;;28.83;;
27223;SDS011;14965;50.660;13.226;2024-03-07T07:57:32;49.53;;;25.52;;
27223;SDS011;14965;50.660;13.226;2024-03-07T07:59:58;53.38;;;27.42;;
27223;SDS011;14965;50.660;13.226;2024-03-07T08:02:26;53.03;;;28.25;;
27223;SDS011;14965;50.660;13.226;2024-03-07T08:04:51;53.25;;;26.58;;
27223;SDS011;14965;50.660;13.226;2024-03-07T08:07:17;51.15;;;28.33;;
27223;SDS011;14965;50.660;13.226;2024-03-07T08:09:43;56.88;;;28.70;;
27223;SDS011;14965;50.660;13.226;2024-03-07T08:12:09;47.53;;;26.40;;
27223;SDS011;14965;50.660;13.226;2024-03-07T08:14:35;47.55;;;24.73;;
27223;SDS011;14965;50.660;13.226;2024-03-07T08:17:01;42.65;;;23.40;;
27223;SDS011;14965;50.660;13.226;2024-03-07T08:19:28;45.63;;;22.52;;
27223;SDS011;14965;50.660;13.226;2024-03-07T08:21:54;42.97;;;22.88;;
27223;SDS011;14965;50.660;13.226;2024-03-07T08:24:20;44.72;;;22.80;;
27223;SDS011;14965;50.660;13.226;2024-03-07T08:26:45;47.00;;;24.08;;
27223;SDS011;14965;50.660;13.226;2024-03-07T08:29:11;43.65;;;22.05;;
27223;SDS011;14965;50.660;13.226;2024-03-07T08:31:37;43.33;;;22.15;;
27223;SDS011;14965;50.660;13.226;2024-03-07T08:34:03;47.05;;;24.90;;
27223;SDS011;14965;50.660;13.226;2024-03-07T08:36:30;46.35;;;24.70;;
27223;SDS011;14965;50.660;13.226;2024-03-07T08:38:56;42.58;;;24.38;;
27223;SDS011;14965;50.660;13.226;2024-03-07T08:41:22;45.00;;;23.92;;
27223;SDS011;14965;50.660;13.226;2024-03-07T08:43:48;49.25;;;24.30;;
27223;SDS011;14965;50.660;13.226;2024-03-07T08:46:14;48.72;;;25.05;;
27223;SDS011;14965;50.660;13.226;2024-03-07T08:48:40;50.00;;;24.90;;
27223;SDS011;14965;50.660;13.226;2024-03-07T08:51:06;48.60;;;25.05;;
27223;SDS011;14965;50.660;13.226;2024-03-07T08:53:35;48.97;;;25.80;;
27223;SDS011;14965;50.660;13.226;2024-03-07T08:56:01;47.35;;;23.67;;
27223;SDS011;14965;50.660;13.226;2024-03-07T08:58:26;51.78;;;24.98;;
27223;SDS011;14965;50.660;13.226;2024-03-07T09:00:52;42.28;;;22.17;;
27223;SDS011;14965;50.660;13.226;2024-03-07T09:03:18;43.90;;;21.00;;
27223;SDS011;14965;50.660;13.226;2024-03-07T09:05:44;36.72;;;19.55;;
27223;SDS011;14965;50.660;13.226;2024-03-07T09:08:12;40.10;;;20.48;;
27223;SDS011;14965;50.660;13.226;2024-03-07T09:10:39;38.33;;;19.88;;
27223;SDS011;14965;50.660;13.226;2024-03-07T09:13:05;36.55;;;18.48;;
27223;SDS011;14965;50.660;13.226;2024-03-07T09:15:31;31.73;;;17.33;;
27223;SDS011;14965;50.660;13.226;2024-03-07T09:17:56;40.35;;;18.30;;
27223;SDS011;14965;50.660;13.226;2024-03-07T09:20:22;34.78;;;17.80;;
27223;SDS011;14965;50.660;13.226;2024-03-07T09:22:48;36.72;;;18.30;;
27223;SDS011;14965;50.660;13.226;2024-03-07T09:25:14;36.30;;;17.90;;
27223;SDS011;14965;50.660;13.226;2024-03-07T09:27:42;32.03;;;17.25;;
27223;SDS011;14965;50.660;13.226;2024-03-07T09:30:08;36.92;;;17.77;;
27223;SDS011;14965;50.660;13.226;2024-03-07T09:32:34;36.97;;;19.52;;
27223;SDS011;14965;50.660;13.226;2024-03-07T09:35:00;34.08;;;17.83;;
27223;SDS011;14965;50.660;13.226;2024-03-07T09:37:26;39.03;;;19.23;;
27223;SDS011;14965;50.660;13.226;2024-03-07T09:39:52;41.97;;;19.15;;
27223;SDS011;14965;50.660;13.226;2024-03-07T09:42:18;42.97;;;20.00;;
27223;SDS011;14965;50.660;13.226;2024-03-07T09:44:46;41.83;;;20.13;;
27223;SDS011;14965;50.660;13.226;2024-03-07T09:47:15;40.50;;;20.50;;
27223;SDS011;14965;50.660;13.226;2024-03-07T09:49:41;41.85;;;20.08;;
27223;SDS011;14965;50.660;13.226;2024-03-07T09:52:08;42.95;;;21.27;;
27223;SDS011;14965;50.660;13.226;2024-03-07T09:57:03;41.47;;;20.40;;
27223;SDS011;14965;50.660;13.226;2024-03-07T09:59:32;44.58;;;21.25;;
27223;SDS011;14965;50.660;13.226;2024-03-07T10:02:02;43.92;;;20.90;;
27223;SDS011;14965;50.660;13.226;2024-03-07T10:04:31;40.63;;;21.35;;
27223;SDS011;14965;50.660;13.226;2024-03-07T10:07:08;44.88;;;22.88;;
27223;SDS011;14965;50.660;13.226;2024-03-07T10:09:34;40.47;;;20.88;;
27223;SDS011;14965;50.660;13.226;2024-03-07T10:12:01;44.28;;;21.85;;
27223;SDS011;14965;50.660;13.226;2024-03-07T10:14:27;42.55;;;21.33;;
27223;SDS011;14965;50.660;13.226;2024-03-07T10:16:57;42.53;;;21.13;;
27223;SDS011;14965;50.660;13.226;2024-03-07T10:19:24;40.53;;;20.90;;
27223;SDS011;14965;50.660;13.226;2024-03-07T10:21:50;38.83;;;21.15;;
27223;SDS011;14965;50.660;13.226;2024-03-07T10:24:16;40.33;;;21.00;;
27223;SDS011;14965;50.660;13.226;2024-03-07T10:26:42;39.45;;;21.10;;
27223;SDS011;14965;50.660;13.226;2024-03-07T10:29:08;43.30;;;21.70;;
27223;SDS011;14965;50.660;13.226;2024-03-07T10:31:35;39.22;;;20.92;;
27223;SDS011;14965;50.660;13.226;2024-03-07T10:34:01;40.10;;;21.48;;
27223;SDS011;14965;50.660;13.226;2024-03-07T10:36:29;42.58;;;21.15;;
27223;SDS011;14965;50.660;13.226;2024-03-07T10:38:55;40.15;;;20.58;;
27223;SDS011;14965;50.660;13.226;2024-03-07T10:41:22;40.75;;;19.98;;
27223;SDS011;14965;50.660;13.226;2024-03-07T10:43:53;38.55;;;19.70;;
27223;SDS011;14965;50.660;13.226;2024-03-07T10:46:23;38.33;;;19.80;;
27223;SDS011;14965;50.660;13.226;2024-03-07T10:48:51;38.47;;;20.23;;
27223;SDS011;14965;50.660;13.226;2024-03-07T10:51:25;40.53;;;20.80;;
27223;SDS011;14965;50.660;13.226;2024-03-07T10:53:59;39.15;;;20.45;;
27223;SDS011;14965;50.660;13.226;2024-03-07T10:56:38;40.40;;;20.75;;
27223;SDS011;14965;50.660;13.226;2024-03-07T10:59:21;44.63;;;21.52;;
27223;SDS011;14965;50.660;13.226;2024-03-07T11:01:53;40.10;;;21.30;;
27223;SDS011;14965;50.660;13.226;2024-03-07T11:04:29;40.30;;;21.38;;
27223;SDS011;14965;50.660;13.226;2024-03-07T11:06:58;35.45;;;18.88;;
27223;SDS011;14965;50.660;13.226;2024-03-07T11:09:24;35.95;;;18.77;;
27223;SDS011;14965;50.660;13.226;2024-03-07T11:11:51;34.47;;;18.90;;
27223;SDS011;14965;50.660;13.226;2024-03-07T11:14:17;33.90;;;18.85;;
27223;SDS011;14965;50.660;13.226;2024-03-07T11:16:45;38.15;;;19.00;;
27223;SDS011;14965;50.660;13.226;2024-03-07T11:19:25;35.95;;;19.42;;
27223;SDS011;14965;50.660;13.226;2024-03-07T11:21:52;36.53;;;19.05;;
27223;SDS011;14965;50.660;13.226;2024-03-07T11:24:26;33.05;;;18.10;;
27223;SDS011;14965;50.660;13.226;2024-03-07T11:26:54;35.40;;;19.40;;
27223;SDS011;14965;50.660;13.226;2024-03-07T11:32:08;34.47;;;18.27;;
27223;SDS011;14965;50.660;13.226;2024-03-07T11:34:35;34.97;;;18.75;;
27223;SDS011;14965;50.660;13.226;2024-03-07T11:37:04;34.65;;;19.50;;
27223;SDS011;14965;50.660;13.226;2024-03-07T11:39:40;36.10;;;19.33;;
27223;SDS011;14965;50.660;13.226;2024-03-07T11:42:06;34.03;;;19.25;;
27223;SDS011;14965;50.660;13.226;2024-03-07T11:44:32;38.22;;;20.05;;
27223;SDS011;14965;50.660;13.226;2024-03-07T11:46:58;34.00;;;19.15;;
27223;SDS011;14965;50.660;13.226;2024-03-07T11:49:24;36.13;;;19.42;;
27223;SDS011;14965;50.660;13.226;2024-03-07T11:51:50;37.30;;;20.17;;
27223;SDS011;14965;50.660;13.226;2024-03-07T11:54:16;38.13;;;19.77;;
27223;SDS011;14965;50.660;13.226;2024-03-07T11:56:43;39.75;;;19.70;;
27223;SDS011;14965;50.660;13.226;2024-03-07T11:59:09;37.60;;;19.55;;
27223;SDS011;14965;50.660;13.226;2024-03-07T12:01:35;38.05;;;20.23;;
27223;SDS011;14965;50.660;13.226;2024-03-07T12:04:01;36.00;;;20.83;;
27223;SDS011;14965;50.660;13.226;2024-03-07T12:06:27;36.85;;;19.85;;
27223;SDS011;14965;50.660;13.226;2024-03-07T12:08:53;42.55;;;20.20;;
27223;SDS011;14965;50.660;13.226;2024-03-07T12:11:19;36.13;;;19.65;;
27223;SDS011;14965;50.660;13.226;2024-03-07T12:13:46;40.90;;;19.08;;
27223;SDS011;14965;50.660;13.226;2024-03-07T12:16:12;35.67;;;20.23;;
27223;SDS011;14965;50.660;13.226;2024-03-07T12:18:38;36.35;;;18.95;;
27223;SDS011;14965;50.660;13.226;2024-03-07T12:21:04;34.72;;;18.75;;
27223;SDS011;14965;50.660;13.226;2024-03-07T12:23:30;33.97;;;19.17;;
27223;SDS011;14965;50.660;13.226;2024-03-07T12:25:59;37.42;;;20.27;;
27223;SDS011;14965;50.660;13.226;2024-03-07T12:28:25;37.03;;;20.60;;
27223;SDS011;14965;50.660;13.226;2024-03-07T12:30:53;38.45;;;19.98;;
27223;SDS011;14965;50.660;13.226;2024-03-07T12:33:21;34.55;;;19.48;;
27223;SDS011;14965;50.660;13.226;2024-03-07T12:35:48;38.08;;;19.83;;
27223;SDS011;14965;50.660;13.226;2024-03-07T12:38:16;34.63;;;19.48;;
27223;SDS011;14965;50.660;13.226;2024-03-07T12:40:43;39.50;;;19.98;;
27223;SDS011;14965;50.660;13.226;2024-03-07T12:43:14;36.58;;;19.63;;
27223;SDS011;14965;50.660;13.226;2024-03-07T12:45:47;35.15;;;19.98;;
27223;SDS011;14965;50.660;13.226;2024-03-07T12:48:16;35.85;;;20.42;;
27223;SDS011;14965;50.660;13.226;2024-03-07T12:50:44;37.22;;;20.13;;
27223;SDS011;14965;50.660;13.226;2024-03-07T12:53:11;33.70;;;19.55;;
27223;SDS011;14965;50.660;13.226;2024-03-07T12:55:37;35.92;;;19.83;;
27223;SDS011;14965;50.660;13.226;2024-03-07T12:58:04;42.05;;;21.42;;
27223;SDS011;14965;50.660;13.226;2024-03-07T13:00:30;38.95;;;20.60;;
27223;SDS011;14965;50.660;13.226;2024-03-07T13:02:56;37.33;;;20.67;;
27223;SDS011;14965;50.660;13.226;2024-03-07T13:05:23;41.85;;;21.90;;
27223;SDS011;14965;50.660;13.226;2024-03-07T13:07:49;44.80;;;21.98;;
27223;SDS011;14965;50.660;13.226;2024-03-07T13:10:15;40.58;;;20.65;;
27223;SDS011;14965;50.660;13.226;2024-03-07T13:12:42;35.92;;;20.27;;
27223;SDS011;14965;50.660;13.226;2024-03-07T13:15:08;36.88;;;21.10;;
27223;SDS011;14965;50.660;13.226;2024-03-07T13:17:35;61.70;;;29.60;;
27223;SDS011;14965;50.660;13.226;2024-03-07T13:20:01;41.08;;;21.75;;
27223;SDS011;14965;50.660;13.226;2024-03-07T13:22:29;38.67;;;21.33;;
27223;SDS011;14965;50.660;13.226;2024-03-07T13:24:55;39.03;;;22.02;;
27223;SDS011;14965;50.660;13.226;2024-03-07T13:27:21;37.90;;;21.20;;
27223;SDS011;14965;50.660;13.226;2024-03-07T13:29:47;37.92;;;21.33;;
27223;SDS011;14965;50.660;13.226;2024-03-07T13:32:12;46.92;;;25.00;;
27223;SDS011;14965;50.660;13.226;2024-03-07T13:34:38;39.70;;;21.55;;
27223;SDS011;14965;50.660;13.226;2024-03-07T13:37:04;39.20;;;22.08;;
27223;SDS011;14965;50.660;13.226;2024-03-07T13:39:32;40.90;;;22.33;;
27223;SDS011;14965;50.660;13.226;2024-03-07T13:41:57;40.97;;;22.00;;
27223;SDS011;14965;50.660;13.226;2024-03-07T13:44:23;42.55;;;22.17;;
27223;SDS011;14965;50.660;13.226;2024-03-07T13:46:49;43.67;;;23.90;;
27223;SDS011;14965;50.660;13.226;2024-03-07T13:49:15;41.63;;;23.60;;
27223;SDS011;14965;50.660;13.226;2024-03-07T13:51:41;40.72;;;23.60;;
27223;SDS011;14965;50.660;13.226;2024-03-07T13:54:09;43.85;;;22.50;;
27223;SDS011;14965;50.660;13.226;2024-03-07T13:56:42;44.92;;;23.23;;
27223;SDS011;14965;50.660;13.226;2024-03-07T13:59:23;41.13;;;22.50;;
27223;SDS011;14965;50.660;13.226;2024-03-07T14:05:52;40.97;;;23.10;;
27223;SDS011;14965;50.660;13.226;2024-03-07T14:15:20;49.22;;;25.50;;
27223;SDS011;14965;50.660;13.226;2024-03-07T14:21:58;46.03;;;24.60;;
27223;SDS011;14965;50.660;13.226;2024-03-07T14:24:46;48.90;;;26.10;;
27223;SDS011;14965;50.660;13.226;2024-03-07T14:27:34;49.05;;;26.83;;